Logan, Alabama
Current Conditions -  °F | °C
As of 9:55 PM on Wednesday 22 Oct 2014 (Local Time) from KCMD Reporting Station
Clear Clear  
Wind Chill: 46°   Ceiling: Unl
Heat Index: 46°   Visibility: 10mi
Dew Point: 42°   Wind: 0mph
Humidity: 83%   Direction: NA
Pressure: 30.19"   Gusts: NA
Location:  34.13°N, 87°W
Report Text: KCMD 230255Z AUTO 00000KT 10SM CLR 08/05 A3019 RMK AO2 T00800053
Loading
Personal Weather Stations






























Interactive Weather Map
Tropical Storm Tracking
New forecast layout! Learn more

10-Day Weather Forecast

Advertisements
Track Severe Weather on mobile